Time;durP1;ratioP1;P1;durP2;ratioP2;P2;SDS_P1;SDS_P2;PMS_P1;PMS_P2;Temp;Humidity;BMP_temperature;BMP_pressure;BME280_temperature;BME280_humidity;BME280_pressure;Samples;Min_cycle;Max_cycle;Signal;HPM_P1;HPM_P2
2023/03/31 00:02:12;;;;;;;5.03;1.50;;;;;;;;;;6079347;23;20032;-73
2023/03/31 00:04:44;;;;;;;6.45;1.30;;;;;;;;;;6037466;23;20026;-74
2023/03/31 00:07:12;;;;;;;5.43;1.08;;;;;;;;;;6040687;23;20023;-76
2023/03/31 00:09:39;;;;;;;5.97;1.30;;;;;;;;;;6056277;23;20037;-73
2023/03/31 00:12:06;;;;;;;6.35;1.17;;;;;;;;;;6051470;23;20041;-74
2023/03/31 00:14:33;;;;;;;5.25;1.30;;;;;;;;;;6104510;23;20026;-73
2023/03/31 00:17:00;;;;;;;5.90;1.40;;;;;;;;;;6090275;23;20026;-76
2023/03/31 00:19:31;;;;;;;8.30;1.23;;;;;;;;;;6106569;23;20025;-74
2023/03/31 00:22:00;;;;;;;6.05;1.25;;;;;;;;;;6110674;23;20101;-75
2023/03/31 00:24:27;;;;;;;4.15;1.42;;;;;;;;;;6098701;23;20029;-74
2023/03/31 00:26:54;;;;;;;7.30;1.38;;;;;;;;;;6088359;23;20029;-76
2023/03/31 00:29:23;;;;;;;5.72;1.15;;;;;;;;;;6072887;23;20022;-75
2023/03/31 00:31:50;;;;;;;5.82;1.40;;;;;;;;;;6079381;23;20105;-73
2023/03/31 00:34:16;;;;;;;4.22;1.25;;;;;;;;;;6062851;23;20110;-76
2023/03/31 00:36:46;;;;;;;3.10;1.10;;;;;;;;;;6074873;23;20077;-74
2023/03/31 00:39:14;;;;;;;4.07;1.65;;;;;;;;;;6075166;23;20149;-76
2023/03/31 00:41:41;;;;;;;7.50;1.40;;;;;;;;;;6075709;23;20083;-75
2023/03/31 00:44:11;;;;;;;3.85;1.08;;;;;;;;;;6073131;23;20022;-73
2023/03/31 00:46:40;;;;;;;6.15;1.30;;;;;;;;;;6074873;23;20022;-75
2023/03/31 00:49:07;;;;;;;;;;;;;;;;;;6072767;23;20034;-74
2023/03/31 00:51:34;;;;;;;3.53;1.23;;;;;;;;;;6080430;23;19921;-75
2023/03/31 00:54:07;;;;;;;3.42;1.17;;;;;;;;;;6070673;23;20023;-73
2023/03/31 00:56:36;;;;;;;2.53;1.13;;;;;;;;;;6073933;23;20125;-73
2023/03/31 00:59:04;;;;;;;4.70;1.38;;;;;;;;;;6068187;23;20026;-76
2023/03/31 01:01:30;;;;;;;3.20;1.30;;;;;;;;;;6075863;23;20109;-75
2023/03/31 01:03:58;;;;;;;4.43;1.40;;;;;;;;;;6071518;23;20102;-73
2023/03/31 01:06:25;;;;;;;8.60;1.60;;;;;;;;;;6076779;23;20026;-74
2023/03/31 01:08:52;;;;;;;5.40;1.40;;;;;;;;;;6075981;23;20058;-75
2023/03/31 01:11:22;;;;;;;4.68;1.35;;;;;;;;;;6070767;23;20022;-75
2023/03/31 01:13:50;;;;;;;7.57;2.05;;;;;;;;;;6075915;23;20026;-75
2023/03/31 01:16:17;;;;;;;3.25;1.13;;;;;;;;;;6078524;23;20037;-74
2023/03/31 01:18:48;;;;;;;5.43;1.67;;;;;;;;;;6076238;23;20022;-74
2023/03/31 01:21:48;;;;;;;3.80;1.40;;;;;;;;;;6072713;23;20030;-74
2023/03/31 01:24:24;;;;;;;3.30;1.25;;;;;;;;;;5990752;23;20026;-73
2023/03/31 01:26:56;;;;;;;4.72;1.50;;;;;;;;;;6027909;23;20082;-75
2023/03/31 01:29:38;;;;;;;3.65;1.40;;;;;;;;;;6048337;23;20085;-75
2023/03/31 01:32:19;;;;;;;3.38;1.20;;;;;;;;;;6079050;23;20018;-75
2023/03/31 01:34:58;;;;;;;6.65;1.55;;;;;;;;;;6041975;23;20035;-75
2023/03/31 01:37:52;;;;;;;6.57;1.55;;;;;;;;;;6026124;23;20042;-74
2023/03/31 01:40:36;;;;;;;5.03;1.40;;;;;;;;;;6041714;23;20095;-73
2023/03/31 01:43:06;;;;;;;7.70;1.85;;;;;;;;;;6029634;23;20030;-75
2023/03/31 01:45:38;;;;;;;5.40;1.30;;;;;;;;;;6077908;23;20098;-74
2023/03/31 01:48:07;;;;;;;5.75;1.30;;;;;;;;;;6078548;23;20027;-74
2023/03/31 01:50:36;;;;;;;3.88;1.30;;;;;;;;;;6079051;23;20032;-73
2023/03/31 01:53:04;;;;;;;6.43;1.52;;;;;;;;;;6066492;23;20202;-74
2023/03/31 01:55:34;;;;;;;4.65;1.40;;;;;;;;;;6077809;23;20022;-73
2023/03/31 01:58:05;;;;;;;4.72;1.20;;;;;;;;;;6078613;23;20114;-75
2023/03/31 02:00:36;;;;;;;5.78;1.25;;;;;;;;;;6077634;23;20026;-75
2023/03/31 02:03:06;;;;;;;6.32;1.65;;;;;;;;;;6078578;23;20022;-75
2023/03/31 02:05:36;;;;;;;4.38;1.42;;;;;;;;;;5998734;23;20026;-73
2023/03/31 02:08:06;;;;;;;6.32;1.35;;;;;;;;;;6102878;23;20034;-74
2023/03/31 02:10:34;;;;;;;5.53;1.42;;;;;;;;;;6069000;23;20030;-75
2023/03/31 02:13:02;;;;;;;5.40;1.42;;;;;;;;;;6080232;23;20073;-75
2023/03/31 02:15:31;;;;;;;6.78;1.20;;;;;;;;;;6072046;23;20023;-75
2023/03/31 02:18:04;;;;;;;3.15;1.42;;;;;;;;;;6076988;23;20040;-74
2023/03/31 02:20:32;;;;;;;5.53;1.80;;;;;;;;;;6067996;23;20033;-72
2023/03/31 02:22:59;;;;;;;4.90;1.20;;;;;;;;;;6064978;23;20030;-73
2023/03/31 02:25:29;;;;;;;5.35;2.03;;;;;;;;;;6080965;23;20178;-74
2023/03/31 02:27:58;;;;;;;5.00;1.63;;;;;;;;;;6112992;23;20021;-75
2023/03/31 02:30:28;;;;;;;3.28;1.20;;;;;;;;;;6100569;23;20025;-73
2023/03/31 02:32:55;;;;;;;4.20;1.40;;;;;;;;;;6111978;23;20018;-75
2023/03/31 02:35:24;;;;;;;2.47;1.10;;;;;;;;;;6106652;23;20033;-75
2023/03/31 02:37:50;;;;;;;;;;;;;;;;;;6113843;23;20107;-75
2023/03/31 02:40:18;;;;;;;5.38;1.30;;;;;;;;;;6100556;23;19920;-75
2023/03/31 02:42:45;;;;;;;5.32;1.70;;;;;;;;;;6112895;23;20021;-75
2023/03/31 02:45:26;;;;;;;3.75;1.10;;;;;;;;;;6102873;23;20021;-73
2023/03/31 02:47:53;;;;;;;4.95;1.40;;;;;;;;;;6106891;23;20056;-74
2023/03/31 02:50:23;;;;;;;6.72;1.55;;;;;;;;;;6105264;23;20025;-72
2023/03/31 02:52:58;;;;;;;5.43;1.35;;;;;;;;;;6113117;23;20033;-73
2023/03/31 02:55:33;;;;;;;5.20;1.30;;;;;;;;;;6107024;23;20017;-73
2023/03/31 02:58:12;;;;;;;4.07;1.13;;;;;;;;;;6114285;23;20017;-73
2023/03/31 03:00:46;;;;;;;6.22;1.10;;;;;;;;;;6110090;23;20025;-73
2023/03/31 03:03:19;;;;;;;4.32;1.40;;;;;;;;;;6109484;23;20037;-72
2023/03/31 03:05:48;;;;;;;4.72;1.38;;;;;;;;;;6098333;23;20049;-73
2023/03/31 03:08:20;;;;;;;3.97;1.05;;;;;;;;;;6105147;23;20025;-73
2023/03/31 03:10:55;;;;;;;8.15;1.60;;;;;;;;;;6113428;23;20026;-74
2023/03/31 03:13:26;;;;;;;3.42;1.05;;;;;;;;;;6094921;23;20025;-75
2023/03/31 03:15:56;;;;;;;6.00;1.20;;;;;;;;;;6108851;23;20026;-74
2023/03/31 03:18:24;;;;;;;5.18;1.33;;;;;;;;;;6100592;23;20090;-75
2023/03/31 03:20:51;;;;;;;6.83;1.30;;;;;;;;;;6111756;23;20080;-76
2023/03/31 03:23:19;;;;;;;3.08;1.20;;;;;;;;;;6111947;23;20267;-73
2023/03/31 03:25:46;;;;;;;4.45;0.95;;;;;;;;;;6107452;23;20026;-75
2023/03/31 03:28:13;;;;;;;4.55;1.02;;;;;;;;;;6104924;23;20021;-73
2023/03/31 03:30:40;;;;;;;5.07;1.17;;;;;;;;;;6090787;23;20089;-74
2023/03/31 03:33:06;;;;;;;4.70;1.38;;;;;;;;;;6108950;23;20173;-74
2023/03/31 03:35:34;;;;;;;2.92;0.85;;;;;;;;;;6106381;23;20021;-73
2023/03/31 03:38:01;;;;;;;4.70;1.10;;;;;;;;;;6110531;23;20149;-73
2023/03/31 03:40:29;;;;;;;5.15;1.23;;;;;;;;;;6110043;23;20080;-74
2023/03/31 03:42:56;;;;;;;2.65;1.00;;;;;;;;;;6110698;23;20036;-74
2023/03/31 03:45:22;;;;;;;2.80;0.90;;;;;;;;;;6095807;23;20017;-74
2023/03/31 03:47:49;;;;;;;3.92;0.90;;;;;;;;;;6111803;23;20029;-76
2023/03/31 03:50:16;;;;;;;2.22;0.95;;;;;;;;;;6104768;23;20129;-76
2023/03/31 03:52:42;;;;;;;5.72;1.02;;;;;;;;;;6106869;23;20029;-73
2023/03/31 03:55:19;;;;;;;4.03;1.17;;;;;;;;;;6091492;23;20030;-73
2023/03/31 03:57:48;;;;;;;3.38;1.00;;;;;;;;;;6110306;23;20025;-73
2023/03/31 04:00:15;;;;;;;4.00;1.33;;;;;;;;;;6107703;23;20021;-74
2023/03/31 04:02:42;;;;;;;3.97;1.00;;;;;;;;;;6113248;23;20052;-73
2023/03/31 04:05:10;;;;;;;3.83;1.08;;;;;;;;;;6091789;23;20105;-73
2023/03/31 04:07:37;;;;;;;3.58;1.20;;;;;;;;;;6116133;23;20025;-74
2023/03/31 04:10:08;;;;;;;3.20;0.80;;;;;;;;;;6110495;23;20102;-74
2023/03/31 04:12:35;;;;;;;2.28;0.80;;;;;;;;;;6108175;23;20022;-72
2023/03/31 04:15:04;;;;;;;3.60;0.98;;;;;;;;;;6106913;23;20028;-73
2023/03/31 04:17:33;;;;;;;;;;;;;;;;;;6113724;23;20166;-73
2023/03/31 04:20:03;;;;;;;4.85;0.93;;;;;;;;;;6112900;23;19916;-74
2023/03/31 04:22:34;;;;;;;5.65;0.93;;;;;;;;;;6133381;23;20026;-74
2023/03/31 04:25:01;;;;;;;3.92;1.17;;;;;;;;;;6109766;23;20017;-73
2023/03/31 04:27:27;;;;;;;2.33;0.98;;;;;;;;;;6113143;23;20022;-75
2023/03/31 04:29:54;;;;;;;5.28;0.90;;;;;;;;;;6112830;23;20097;-75
2023/03/31 04:32:22;;;;;;;2.78;1.02;;;;;;;;;;6107746;23;20049;-77
2023/03/31 04:34:50;;;;;;;2.97;0.98;;;;;;;;;;6106605;23;20161;-76
2023/03/31 04:37:17;;;;;;;2.47;0.83;;;;;;;;;;6112528;23;20113;-76
2023/03/31 04:39:45;;;;;;;3.55;0.80;;;;;;;;;;6110086;23;20401;-73
2023/03/31 04:42:12;;;;;;;3.20;0.63;;;;;;;;;;6110409;23;20021;-75
2023/03/31 04:44:39;;;;;;;3.97;1.00;;;;;;;;;;6102816;23;20032;-76
2023/03/31 04:47:05;;;;;;;2.38;0.80;;;;;;;;;;6099574;23;20022;-76
2023/03/31 04:49:36;;;;;;;3.67;1.13;;;;;;;;;;6118552;23;20032;-73
2023/03/31 04:52:04;;;;;;;2.42;0.80;;;;;;;;;;6108291;23;20018;-74
2023/03/31 04:54:30;;;;;;;4.65;1.20;;;;;;;;;;6105931;23;20113;-78
2023/03/31 04:56:57;;;;;;;7.90;1.10;;;;;;;;;;6112423;23;20021;-76
2023/03/31 04:59:24;;;;;;;2.90;0.88;;;;;;;;;;6113992;23;20022;-75
2023/03/31 05:01:50;;;;;;;3.83;1.05;;;;;;;;;;6115305;23;20044;-73
2023/03/31 05:04:17;;;;;;;2.53;0.85;;;;;;;;;;6081653;23;20029;-77
2023/03/31 05:06:49;;;;;;;3.53;1.10;;;;;;;;;;6108575;23;20029;-75
2023/03/31 05:09:16;;;;;;;3.92;1.00;;;;;;;;;;6110785;23;20097;-76
2023/03/31 05:11:42;;;;;;;3.15;1.00;;;;;;;;;;6110905;23;20052;-75
2023/03/31 05:14:09;;;;;;;4.70;1.17;;;;;;;;;;6097700;23;20025;-74
2023/03/31 05:16:36;;;;;;;2.55;0.90;;;;;;;;;;6091151;23;20033;-74
2023/03/31 05:19:07;;;;;;;4.47;1.10;;;;;;;;;;6097609;23;20028;-74
2023/03/31 05:21:34;;;;;;;3.50;0.98;;;;;;;;;;6111501;23;20043;-77
2023/03/31 05:24:03;;;;;;;3.67;0.85;;;;;;;;;;6108418;23;20101;-74
2023/03/31 05:26:30;;;;;;;5.32;1.08;;;;;;;;;;6057269;23;20029;-73
2023/03/31 05:28:57;;;;;;;5.32;1.08;;;;;;;;;;6052751;23;20022;-74
2023/03/31 05:31:24;;;;;;;3.15;0.90;;;;;;;;;;6053283;23;20028;-74
2023/03/31 05:33:51;;;;;;;4.90;1.10;;;;;;;;;;6050705;23;20030;-76
2023/03/31 05:36:22;;;;;;;4.13;1.08;;;;;;;;;;6044057;23;20112;-75
2023/03/31 05:38:48;;;;;;;3.78;0.88;;;;;;;;;;6032596;23;20052;-75
2023/03/31 05:41:17;;;;;;;3.42;1.10;;;;;;;;;;6062985;23;20089;-77
2023/03/31 05:43:46;;;;;;;4.90;0.85;;;;;;;;;;6047651;23;20029;-75
2023/03/31 05:46:12;;;;;;;3.17;1.30;;;;;;;;;;6072840;23;20030;-74
2023/03/31 05:48:41;;;;;;;3.90;1.00;;;;;;;;;;6050237;23;20027;-77
2023/03/31 05:51:11;;;;;;;3.88;1.20;;;;;;;;;;6056292;23;20025;-74
2023/03/31 05:53:37;;;;;;;4.50;1.45;;;;;;;;;;6050594;23;20030;-76
2023/03/31 05:56:07;;;;;;;3.58;0.90;;;;;;;;;;6050234;23;20082;-74
2023/03/31 05:58:44;;;;;;;2.58;0.80;;;;;;;;;;6052115;23;20018;-73
2023/03/31 06:01:12;;;;;;;5.07;1.10;;;;;;;;;;6061600;23;20026;-76
2023/03/31 06:03:40;;;;;;;3.80;0.70;;;;;;;;;;6043773;23;20037;-76
2023/03/31 06:06:11;;;;;;;7.47;1.15;;;;;;;;;;6046644;23;20029;-73
2023/03/31 06:08:38;;;;;;;2.30;0.75;;;;;;;;;;6018823;23;20026;-73
2023/03/31 06:11:09;;;;;;;5.68;0.90;;;;;;;;;;6052405;23;20110;-73
2023/03/31 06:13:36;;;;;;;5.25;0.80;;;;;;;;;;6030280;23;20057;-77
2023/03/31 06:16:05;;;;;;;4.53;1.20;;;;;;;;;;6047768;23;20105;-77
2023/03/31 06:18:35;;;;;;;3.80;1.00;;;;;;;;;;6049791;23;20388;-73
2023/03/31 06:21:12;;;;;;;4.65;1.10;;;;;;;;;;6065771;23;20094;-74
2023/03/31 06:23:46;;;;;;;8.02;1.40;;;;;;;;;;5996247;23;20103;-75
2023/03/31 06:26:20;;;;;;;3.80;0.73;;;;;;;;;;6025473;23;20140;-77
2023/03/31 06:28:50;;;;;;;5.85;1.30;;;;;;;;;;6087869;23;20029;-79
2023/03/31 06:31:20;;;;;;;2.30;0.82;;;;;;;;;;6108564;23;20052;-75
2023/03/31 06:33:48;;;;;;;3.03;0.80;;;;;;;;;;6087324;23;20052;-72
2023/03/31 06:36:15;;;;;;;;;;;;;;;;;;6092814;23;20021;-72
2023/03/31 06:38:43;;;;;;;5.15;0.85;;;;;;;;;;6108291;23;19917;-73
2023/03/31 06:41:12;;;;;;;4.68;0.93;;;;;;;;;;6112293;23;20029;-76
2023/03/31 06:43:39;;;;;;;5.38;1.00;;;;;;;;;;6106273;23;20025;-74
2023/03/31 06:46:11;;;;;;;4.55;0.93;;;;;;;;;;6105887;23;20017;-77
2023/03/31 06:48:40;;;;;;;2.85;0.80;;;;;;;;;;6105107;23;20025;-78
2023/03/31 06:51:09;;;;;;;3.05;1.00;;;;;;;;;;6106584;23;20025;-75
2023/03/31 06:53:39;;;;;;;2.60;0.95;;;;;;;;;;6104632;23;20032;-73
2023/03/31 06:56:06;;;;;;;1.95;0.73;;;;;;;;;;6108971;23;20073;-73
2023/03/31 06:58:33;;;;;;;2.40;0.98;;;;;;;;;;6103310;23;20172;-75
2023/03/31 07:01:07;;;;;;;1.98;0.88;;;;;;;;;;6093890;23;20025;-74
2023/03/31 07:03:35;;;;;;;3.60;0.80;;;;;;;;;;6106134;23;20032;-74
2023/03/31 07:06:09;;;;;;;1.88;0.93;;;;;;;;;;6091940;23;20033;-77
2023/03/31 07:08:38;;;;;;;3.28;0.88;;;;;;;;;;6091412;23;20022;-75
2023/03/31 07:11:08;;;;;;;1.95;0.75;;;;;;;;;;6089803;23;20026;-76
2023/03/31 07:13:40;;;;;;;3.25;0.77;;;;;;;;;;6091244;23;20021;-76
2023/03/31 07:16:12;;;;;;;1.70;0.70;;;;;;;;;;6089233;23;20018;-77
2023/03/31 07:18:40;;;;;;;5.55;0.88;;;;;;;;;;6081289;23;20109;-76
2023/03/31 07:21:10;;;;;;;1.70;0.70;;;;;;;;;;6092071;23;20088;-76
2023/03/31 07:23:39;;;;;;;4.05;0.77;;;;;;;;;;6060632;23;20096;-78
2023/03/31 07:26:12;;;;;;;2.25;0.68;;;;;;;;;;6067909;23;20029;-78
2023/03/31 07:28:39;;;;;;;1.55;0.63;;;;;;;;;;6093585;23;20264;-76
2023/03/31 07:31:13;;;;;;;5.20;0.88;;;;;;;;;;6046862;23;20101;-76
2023/03/31 07:33:40;;;;;;;2.25;0.88;;;;;;;;;;6031395;23;20030;-77
2023/03/31 07:36:14;;;;;;;3.60;0.70;;;;;;;;;;6060428;23;20043;-74
2023/03/31 07:38:41;;;;;;;2.47;0.82;;;;;;;;;;6108792;23;20025;-75
2023/03/31 07:41:10;;;;;;;3.83;0.70;;;;;;;;;;6112568;23;20021;-75
2023/03/31 07:43:36;;;;;;;;;;;;;;;;;;6093714;23;20032;-74
2023/03/31 07:46:06;;;;;;;4.43;0.70;;;;;;;;;;6083266;23;19936;-77
2023/03/31 07:48:36;;;;;;;3.47;1.20;;;;;;;;;;6107208;23;20030;-74
2023/03/31 07:51:10;;;;;;;2.58;0.82;;;;;;;;;;6110683;23;20033;-74
2023/03/31 07:53:37;;;;;;;2.63;0.90;;;;;;;;;;6030841;23;20068;-76
2023/03/31 07:56:06;;;;;;;1.70;0.60;;;;;;;;;;5970132;23;20022;-75
2023/03/31 07:58:33;;;;;;;5.90;1.25;;;;;;;;;;6036755;23;20168;-75
2023/03/31 08:01:11;;;;;;;2.88;0.73;;;;;;;;;;5878321;24;20028;-76
2023/03/31 08:13:53;;;;;;;1.52;0.70;;;;;;;;;;5041978;27;1456375;-66
2023/03/31 08:16:21;;;;;;;3.33;1.10;;;;;;;;;;5022358;28;20120;-67
2023/03/31 08:18:50;;;;;;;4.25;0.77;;;;;;;;;;5056333;28;20061;-66
2023/03/31 08:21:17;;;;;;;3.88;1.10;;;;;;;;;;5070871;28;20047;-66
2023/03/31 08:23:43;;;;;;;5.80;1.05;;;;;;;;;;5073799;28;20051;-68
2023/03/31 08:26:11;;;;;;;2.20;0.88;;;;;;;;;;5003374;28;20036;-67
2023/03/31 08:28:37;;;;;;;4.23;1.10;;;;;;;;;;5059857;28;20055;-68
2023/03/31 08:31:07;;;;;;;2.10;0.90;;;;;;;;;;5078093;28;20055;-68
2023/03/31 08:33:34;;;;;;;3.47;0.80;;;;;;;;;;5090178;28;20071;-69
2023/03/31 08:36:07;;;;;;;5.15;0.80;;;;;;;;;;5086810;28;20055;-68
2023/03/31 08:38:36;;;;;;;2.90;1.00;;;;;;;;;;5091095;28;20055;-69
2023/03/31 08:41:02;;;;;;;;;;;;;;;;;;5032684;28;20132;-68
2023/03/31 08:43:31;;;;;;;3.35;0.80;;;;;;;;;;5045776;28;19927;-69
2023/03/31 08:46:00;;;;;;;;;;;;;;;;;;5043839;28;20397;-68
2023/03/31 08:48:29;;;;;;;5.18;0.88;;;;;;;;;;5052776;28;20011;-68
2023/03/31 08:50:58;;;;;;;3.95;0.80;;;;;;;;;;5078779;28;20162;-70
2023/03/31 08:53:29;;;;;;;4.90;1.02;;;;;;;;;;5062900;28;20051;-69
2023/03/31 08:55:57;;;;;;;4.60;1.00;;;;;;;;;;5011589;28;20056;-69
2023/03/31 08:58:34;;;;;;;4.35;1.10;;;;;;;;;;5048733;28;20048;-69
2023/03/31 09:01:05;;;;;;;8.63;1.27;;;;;;;;;;5078391;28;20075;-70
2023/03/31 09:03:41;;;;;;;7.53;1.13;;;;;;;;;;5107601;28;20089;-69
2023/03/31 09:06:14;;;;;;;4.88;1.05;;;;;;;;;;5016567;28;20063;-71
2023/03/31 09:08:43;;;;;;;8.48;1.20;;;;;;;;;;5077511;27;20078;-69
2023/03/31 09:11:13;;;;;;;4.80;1.10;;;;;;;;;;5052098;28;20063;-69
2023/03/31 09:13:51;;;;;;;8.00;1.00;;;;;;;;;;5088137;28;21401;-69
2023/03/31 09:16:27;;;;;;;4.57;1.20;;;;;;;;;;5044572;28;20051;-69
2023/03/31 09:18:59;;;;;;;5.43;1.13;;;;;;;;;;5083844;28;20066;-68
2023/03/31 09:21:27;;;;;;;8.15;1.33;;;;;;;;;;5104724;27;20070;-69
2023/03/31 09:23:58;;;;;;;11.88;1.27;;;;;;;;;;5098816;27;20059;-70
2023/03/31 09:26:29;;;;;;;8.23;1.38;;;;;;;;;;5076044;27;20043;-69
2023/03/31 09:28:57;;;;;;;7.63;1.67;;;;;;;;;;5098787;27;20351;-69
2023/03/31 09:31:26;;;;;;;8.80;1.35;;;;;;;;;;5080076;28;20047;-68
2023/03/31 09:33:52;;;;;;;;;;;;;;;;;;5094693;27;20129;-69
2023/03/31 09:36:23;;;;;;;10.00;1.90;;;;;;;;;;5045730;28;19928;-69
2023/03/31 09:38:50;;;;;;;3.20;1.25;;;;;;;;;;5100675;27;20057;-67
2023/03/31 09:41:17;;;;;;;9.60;1.42;;;;;;;;;;5094937;27;20059;-68
2023/03/31 09:43:44;;;;;;;5.40;1.20;;;;;;;;;;5096801;28;20075;-68
2023/03/31 09:46:18;;;;;;;6.80;1.42;;;;;;;;;;5079566;28;20164;-67
2023/03/31 09:48:50;;;;;;;11.15;2.10;;;;;;;;;;5083987;28;20113;-68
2023/03/31 09:51:22;;;;;;;6.57;1.40;;;;;;;;;;5086159;28;20051;-67
2023/03/31 09:53:56;;;;;;;10.38;1.38;;;;;;;;;;5091231;28;20116;-67
2023/03/31 09:56:33;;;;;;;5.55;1.33;;;;;;;;;;5087614;27;20434;-68
2023/03/31 09:59:03;;;;;;;9.18;1.42;;;;;;;;;;5097168;27;20163;-68
2023/03/31 10:01:30;;;;;;;5.38;1.45;;;;;;;;;;5077890;28;20058;-68
2023/03/31 10:03:58;;;;;;;7.55;1.52;;;;;;;;;;5088074;28;20056;-67
2023/03/31 10:06:25;;;;;;;6.45;1.40;;;;;;;;;;5072404;28;20047;-67
2023/03/31 10:08:54;;;;;;;4.30;1.45;;;;;;;;;;5089921;27;20134;-67
2023/03/31 10:11:21;;;;;;;6.38;1.30;;;;;;;;;;5083774;28;20083;-69
2023/03/31 10:13:49;;;;;;;7.97;1.80;;;;;;;;;;5090114;28;20055;-68
2023/03/31 10:16:22;;;;;;;6.00;1.45;;;;;;;;;;5049759;27;20174;-67
2023/03/31 10:18:50;;;;;;;11.55;1.50;;;;;;;;;;5055833;28;21151;-68
2023/03/31 10:21:20;;;;;;;12.05;1.80;;;;;;;;;;5095607;28;20107;-67
2023/03/31 10:23:49;;;;;;;6.80;1.70;;;;;;;;;;5084234;28;21121;-68
2023/03/31 10:26:19;;;;;;;7.68;1.60;;;;;;;;;;5076362;28;20122;-69
2023/03/31 10:28:48;;;;;;;8.93;1.40;;;;;;;;;;5068048;28;20106;-68
2023/03/31 10:31:14;;;;;;;7.53;1.25;;;;;;;;;;5085711;28;20055;-68
2023/03/31 10:33:44;;;;;;;10.00;1.70;;;;;;;;;;5094502;28;20059;-67
2023/03/31 10:36:15;;;;;;;6.38;1.42;;;;;;;;;;5084749;28;20071;-69
2023/03/31 10:38:44;;;;;;;9.90;1.55;;;;;;;;;;5091943;28;20071;-68
2023/03/31 10:41:17;;;;;;;6.28;1.27;;;;;;;;;;5100201;28;20062;-67
2023/03/31 10:43:48;;;;;;;6.22;1.25;;;;;;;;;;5083581;27;20103;-68
2023/03/31 10:46:14;;;;;;;10.38;1.65;;;;;;;;;;5090281;27;20067;-68
2023/03/31 10:48:44;;;;;;;10.70;1.40;;;;;;;;;;5090585;28;20134;-68
2023/03/31 10:51:16;;;;;;;6.65;1.45;;;;;;;;;;5066238;28;20071;-67
2023/03/31 10:53:42;;;;;;;;;;;;;;;;;;5085463;27;20289;-68
2023/03/31 10:56:17;;;;;;;4.45;1.30;;;;;;;;;;5050537;28;20136;-69
2023/03/31 10:58:52;;;;;;;11.15;1.88;;;;;;;;;;5088614;28;20059;-68
2023/03/31 11:01:26;;;;;;;8.25;1.50;;;;;;;;;;5062266;28;20084;-68
2023/03/31 11:04:09;;;;;;;3.55;1.02;;;;;;;;;;5088151;27;20181;-68
2023/03/31 11:06:45;;;;;;;10.43;1.55;;;;;;;;;;5083534;28;20499;-68
2023/03/31 11:09:18;;;;;;;6.93;1.10;;;;;;;;;;5088221;28;20055;-68
2023/03/31 11:11:52;;;;;;;7.63;1.30;;;;;;;;;;5091681;28;20142;-69
2023/03/31 11:14:25;;;;;;;15.68;2.00;;;;;;;;;;5096297;27;20303;-67
2023/03/31 11:16:54;;;;;;;8.05;1.42;;;;;;;;;;5089018;28;20055;-67
2023/03/31 11:19:25;;;;;;;5.93;1.27;;;;;;;;;;5093448;28;20066;-68
2023/03/31 11:21:57;;;;;;;6.78;1.42;;;;;;;;;;5086608;28;20142;-67
2023/03/31 11:24:32;;;;;;;10.73;1.52;;;;;;;;;;5093079;28;20051;-66
2023/03/31 11:27:06;;;;;;;8.10;1.55;;;;;;;;;;5065545;28;20230;-67
2023/03/31 11:29:37;;;;;;;10.70;2.10;;;;;;;;;;5100865;28;20052;-67
2023/03/31 11:32:30;;;;;;;6.68;1.17;;;;;;;;;;5083971;28;20056;-68
2023/03/31 11:35:08;;;;;;;8.00;1.30;;;;;;;;;;5072986;27;20058;-67
2023/03/31 11:37:49;;;;;;;7.63;1.42;;;;;;;;;;5064065;28;20047;-67
2023/03/31 11:40:30;;;;;;;8.52;1.33;;;;;;;;;;5081317;28;20055;-67
2023/03/31 11:42:58;;;;;;;9.82;1.60;;;;;;;;;;5090392;28;20058;-67
2023/03/31 11:45:30;;;;;;;9.10;1.67;;;;;;;;;;5065875;28;20059;-67
2023/03/31 11:48:01;;;;;;;13.45;1.48;;;;;;;;;;5090248;28;20151;-67
2023/03/31 11:50:37;;;;;;;9.38;1.20;;;;;;;;;;5048043;28;20171;-66
2023/03/31 11:53:06;;;;;;;8.23;1.40;;;;;;;;;;5070502;28;20054;-67
2023/03/31 11:55:32;;;;;;;9.48;1.40;;;;;;;;;;5071274;28;20056;-66
2023/03/31 11:58:07;;;;;;;7.72;1.20;;;;;;;;;;5081416;28;20058;-68
2023/03/31 12:00:41;;;;;;;10.88;1.50;;;;;;;;;;5085524;27;20047;-67
2023/03/31 12:03:12;;;;;;;11.45;1.60;;;;;;;;;;5103016;27;20052;-67
2023/03/31 12:05:42;;;;;;;8.40;1.17;;;;;;;;;;5089763;28;20199;-68
2023/03/31 12:08:12;;;;;;;10.43;1.58;;;;;;;;;;5092920;28;20066;-68
2023/03/31 12:10:41;;;;;;;6.00;1.25;;;;;;;;;;5087499;28;20051;-67
2023/03/31 12:13:23;;;;;;;6.20;0.90;;;;;;;;;;5095049;28;20079;-67
2023/03/31 12:16:00;;;;;;;11.57;1.45;;;;;;;;;;5090692;28;20055;-68
2023/03/31 12:18:30;;;;;;;9.40;1.13;;;;;;;;;;5081919;28;20051;-68
2023/03/31 12:20:57;;;;;;;8.43;1.38;;;;;;;;;;5092828;28;20051;-68
2023/03/31 12:23:25;;;;;;;10.57;1.48;;;;;;;;;;5088745;28;20128;-68
2023/03/31 12:25:55;;;;;;;11.60;1.30;;;;;;;;;;5076418;28;20062;-68
2023/03/31 12:28:27;;;;;;;8.00;1.45;;;;;;;;;;5078312;27;20074;-67
2023/03/31 12:30:59;;;;;;;8.02;1.30;;;;;;;;;;5083729;28;20077;-67
2023/03/31 12:33:31;;;;;;;9.43;1.27;;;;;;;;;;5079403;28;20062;-68
2023/03/31 12:36:07;;;;;;;5.43;1.40;;;;;;;;;;5072616;28;20071;-69
2023/03/31 12:38:41;;;;;;;9.45;1.27;;;;;;;;;;5089079;27;20055;-68
2023/03/31 12:41:10;;;;;;;5.50;0.90;;;;;;;;;;5094581;28;20120;-69
2023/03/31 12:43:51;;;;;;;7.45;1.30;;;;;;;;;;5088749;28;20043;-68
2023/03/31 12:46:24;;;;;;;8.10;1.20;;;;;;;;;;5056891;28;20229;-68
2023/03/31 12:48:57;;;;;;;11.23;1.50;;;;;;;;;;5082579;27;20051;-69
2023/03/31 12:51:30;;;;;;;9.00;1.10;;;;;;;;;;5082752;28;20055;-70
2023/03/31 12:54:07;;;;;;;10.27;1.13;;;;;;;;;;5057968;28;20056;-69
2023/03/31 12:56:48;;;;;;;8.10;1.27;;;;;;;;;;5038211;28;20052;-69
2023/03/31 12:59:25;;;;;;;5.65;1.13;;;;;;;;;;5074078;27;20047;-69
2023/03/31 13:02:07;;;;;;;8.57;1.30;;;;;;;;;;5091049;28;20052;-69
2023/03/31 13:04:36;;;;;;;6.75;1.30;;;;;;;;;;5090087;27;20051;-69
2023/03/31 13:07:05;;;;;;;9.35;1.50;;;;;;;;;;5087710;28;20074;-69
2023/03/31 13:09:42;;;;;;;5.97;1.52;;;;;;;;;;5083973;28;20110;-68
2023/03/31 13:12:24;;;;;;;9.23;1.55;;;;;;;;;;5086768;28;20086;-70
2023/03/31 13:14:53;;;;;;;7.65;1.30;;;;;;;;;;5093232;28;20058;-69
2023/03/31 13:17:24;;;;;;;6.45;1.35;;;;;;;;;;5042341;28;20075;-68
2023/03/31 13:19:53;;;;;;;6.50;1.58;;;;;;;;;;5090909;27;20148;-69
2023/03/31 13:22:30;;;;;;;7.63;1.27;;;;;;;;;;5066690;28;20066;-70
2023/03/31 13:25:11;;;;;;;8.73;1.50;;;;;;;;;;5086447;28;20051;-69
2023/03/31 13:27:48;;;;;;;6.68;1.38;;;;;;;;;;5091439;28;20056;-70
2023/03/31 13:30:30;;;;;;;6.38;1.10;;;;;;;;;;5090576;28;20117;-70
2023/03/31 13:33:07;;;;;;;7.30;1.30;;;;;;;;;;5089046;27;20059;-69
2023/03/31 13:35:37;;;;;;;6.68;1.23;;;;;;;;;;5052797;27;20058;-69
2023/03/31 13:38:10;;;;;;;6.45;1.23;;;;;;;;;;5093737;28;20058;-71
2023/03/31 13:40:55;;;;;;;6.65;1.55;;;;;;;;;;5081824;28;20059;-70
2023/03/31 13:43:40;;;;;;;6.15;1.17;;;;;;;;;;5095012;28;20080;-69
2023/03/31 13:46:25;;;;;;;5.38;1.23;;;;;;;;;;5061978;28;20052;-71
2023/03/31 13:48:58;;;;;;;11.52;1.50;;;;;;;;;;5080728;27;20117;-69
2023/03/31 13:51:37;;;;;;;8.50;1.65;;;;;;;;;;5088477;27;20060;-69
2023/03/31 13:54:25;;;;;;;5.63;1.10;;;;;;;;;;5092299;28;20083;-70
2023/03/31 13:57:17;;;;;;;6.00;1.25;;;;;;;;;;5037001;28;20137;-69
2023/03/31 13:59:59;;;;;;;8.80;1.20;;;;;;;;;;5068392;27;20062;-70
2023/03/31 14:02:31;;;;;;;7.40;1.10;;;;;;;;;;5045110;28;20056;-69
2023/03/31 14:05:09;;;;;;;5.53;1.23;;;;;;;;;;5080883;27;20071;-71
2023/03/31 14:07:38;;;;;;;5.07;1.10;;;;;;;;;;5082514;27;20069;-70
2023/03/31 14:10:10;;;;;;;6.10;1.40;;;;;;;;;;5075976;27;20130;-71
2023/03/31 14:12:39;;;;;;;7.07;1.27;;;;;;;;;;5089789;28;20043;-70
2023/03/31 14:15:05;;;;;;;;;;;;;;;;;;5078213;27;20158;-70
2023/03/31 14:17:34;;;;;;;5.93;1.42;;;;;;;;;;5070863;28;20189;-70
2023/03/31 14:20:28;;;;;;;3.80;1.05;;;;;;;;;;5095795;28;20055;-69
2023/03/31 14:23:00;;;;;;;5.45;1.80;;;;;;;;;;5026815;28;20051;-69
2023/03/31 14:25:36;;;;;;;3.03;0.90;;;;;;;;;;5029186;28;20124;-70
2023/03/31 14:28:12;;;;;;;5.57;0.98;;;;;;;;;;5042379;28;20120;-69
2023/03/31 14:30:42;;;;;;;6.63;1.27;;;;;;;;;;5074242;28;20063;-69
2023/03/31 14:33:17;;;;;;;5.43;1.20;;;;;;;;;;5084003;28;20109;-69
2023/03/31 14:35:50;;;;;;;7.13;1.30;;;;;;;;;;5075600;27;20051;-69
2023/03/31 14:38:19;;;;;;;4.10;0.75;;;;;;;;;;5082142;27;20051;-69
2023/03/31 14:40:47;;;;;;;4.15;0.90;;;;;;;;;;5093497;27;20066;-69
2023/03/31 14:43:18;;;;;;;8.32;1.35;;;;;;;;;;5088777;27;20123;-69
2023/03/31 14:45:44;;;;;;;4.65;0.80;;;;;;;;;;5082605;27;20054;-70
2023/03/31 14:48:13;;;;;;;2.78;0.77;;;;;;;;;;5055980;27;20109;-70
2023/03/31 14:50:42;;;;;;;3.17;1.00;;;;;;;;;;5082359;28;20054;-69
2023/03/31 14:53:14;;;;;;;4.18;1.10;;;;;;;;;;5087454;27;20055;-70
2023/03/31 14:55:42;;;;;;;5.07;1.30;;;;;;;;;;5088898;27;20108;-70
2023/03/31 14:58:11;;;;;;;6.35;1.15;;;;;;;;;;5056833;28;20074;-69
2023/03/31 15:00:37;;;;;;;;;;;;;;;;;;5075062;28;20047;-69
2023/03/31 15:03:09;;;;;;;5.03;0.77;;;;;;;;;;5076596;28;19923;-70
2023/03/31 15:05:40;;;;;;;5.40;0.95;;;;;;;;;;5077666;27;20071;-69
2023/03/31 15:08:10;;;;;;;2.97;0.85;;;;;;;;;;5065292;28;20086;-70
2023/03/31 15:10:39;;;;;;;3.55;1.10;;;;;;;;;;5091943;28;20053;-69
2023/03/31 15:13:09;;;;;;;5.45;1.10;;;;;;;;;;5089547;28;20139;-70
2023/03/31 15:15:37;;;;;;;3.75;1.05;;;;;;;;;;5046910;28;20048;-70
2023/03/31 15:18:05;;;;;;;4.47;1.50;;;;;;;;;;5079319;28;20231;-69